Airfield :
LOGIN :

Register | Disclaimer

   EN    FR    IT 

 










Legend :    VFR   Marginal VFR   IFR   Intensive IFR   Very Intensive IFR
Visi :
Ceiling :
>= 8 km
>= 3000ft
5 to 8 km
1000 to 3000 ft
1500m to 5 km
500 to 1000 ft
800 to 1500m
200 to 500 ft
< 800m
< 200 ft
Symbols :   Thunderstorms  Fog  Heavy snow  Heavy precipitations  Wind > 20 kt
SIGMETs :     Misc.  Thunderstorms  Icing  Turbulence  Mountain Waves  Volcanic Ashes






- Airport Elevation : 407 ft


EGDM - MoD Boscombe Down Amesbury

CURRENT METAR :
  • 221052Z 03014KT 9999 FEW028 SCT100 15/08 Q1020 NOSIG RMK BLU BLU

EXPIRED METARs :
  • 221020Z 04016KT 9999 FEW026 SCT100 BKN200 14/08 Q1020 NOSIG RMK BLU BLU
  • 220950Z 04017KT 9999 FEW024 SCT080 BKN200 14/08 Q1020 NOSIG RMK BLU BLU
  • 220927Z 03017KT 9999 FEW020 BKN090 13/08 Q1020 TEMPO SCT022 RMK BLU TEMPO WHT
  • 220850Z 04018KT 9999 FEW018 SCT060 BKN090 13/09 Q1020 TEMPO SCT022 RMK BLU TEMPO WHT
  • 220820Z 02016KT 9999 FEW013 SCT060 BKN090 12/10 Q1020 NOSIG RMK BLU BLU

TAF AMD TAF EGDM
Valid from the 22 at 09:00 until the 22 at 18:00 UTC


220924Z 2209/2218 02014KT 9999 FEW025
PROB30
TEMPO 2209/2214 03015G25KT
PROB30
TEMPO 2210/2211 SCT022



MET'MAP, your aeronautical weather chart ! - Copyright ORBIFLY December 2007 - Disclaimer

ORBIFLY MET'MAP TEAM :

Programming & Development : Alexandra Zaïnal
Concept & original design : Baudouin d'Aumeries
Assistance for programming : Marc-Olivier Méhu
Technical & hardware support : Manuel Goepfert

Contact : metmap@orbifly.com




SOURCES & CREDITS :

   NOAA